sensor_id;sensor_type;location;lat;lon;timestamp;pressure;altitude;pressure_sealevel;temperature;humidity
59110;BME280;44895;47.438;18.978;2023-04-04T00:01:03;100307.22;;;4.07;52.36
59110;BME280;44895;47.438;18.978;2023-04-04T00:04:07;100319.84;;;4.07;53.52
59110;BME280;44895;47.438;18.978;2023-04-04T00:07:11;100309.31;;;3.71;56.05
59110;BME280;44895;47.438;18.978;2023-04-04T00:10:14;100319.22;;;3.54;56.87
59110;BME280;44895;47.438;18.978;2023-04-04T00:13:18;100326.16;;;3.38;58.42
59110;BME280;44895;47.438;18.978;2023-04-04T00:16:22;100324.50;;;3.20;59.97
59110;BME280;44895;47.438;18.978;2023-04-04T00:19:25;100328.03;;;3.08;61.55
59110;BME280;44895;47.438;18.978;2023-04-04T00:22:29;100330.66;;;2.91;61.50
59110;BME280;44895;47.438;18.978;2023-04-04T00:25:33;100336.72;;;2.87;63.91
59110;BME280;44895;47.438;18.978;2023-04-04T00:28:36;100338.09;;;2.89;63.79
59110;BME280;44895;47.438;18.978;2023-04-04T00:31:40;100343.72;;;2.88;62.25
59110;BME280;44895;47.438;18.978;2023-04-04T00:34:43;100335.34;;;2.72;63.47
59110;BME280;44895;47.438;18.978;2023-04-04T00:37:47;100338.38;;;2.52;65.43
59110;BME280;44895;47.438;18.978;2023-04-04T00:40:51;100344.41;;;2.24;69.89
59110;BME280;44895;47.438;18.978;2023-04-04T00:43:55;100347.22;;;2.17;73.89
59110;BME280;44895;47.438;18.978;2023-04-04T00:46:58;100334.75;;;2.11;71.52
59110;BME280;44895;47.438;18.978;2023-04-04T00:50:02;100339.25;;;1.99;75.34
59110;BME280;44895;47.438;18.978;2023-04-04T00:53:06;100334.94;;;1.98;77.87
59110;BME280;44895;47.438;18.978;2023-04-04T00:56:09;100331.88;;;1.82;79.75
59110;BME280;44895;47.438;18.978;2023-04-04T00:59:13;100334.31;;;1.72;82.07
59110;BME280;44895;47.438;18.978;2023-04-04T01:02:18;100318.03;;;1.85;82.81
59110;BME280;44895;47.438;18.978;2023-04-04T01:05:22;100306.78;;;1.65;84.87
59110;BME280;44895;47.438;18.978;2023-04-04T01:08:25;100307.88;;;1.63;84.08
59110;BME280;44895;47.438;18.978;2023-04-04T01:11:30;100298.84;;;1.46;85.96
59110;BME280;44895;47.438;18.978;2023-04-04T01:14:34;100302.56;;;1.45;86.04
59110;BME280;44895;47.438;18.978;2023-04-04T01:17:39;100290.47;;;1.97;77.96
59110;BME280;44895;47.438;18.978;2023-04-04T01:24:24;100277.00;;;1.61;77.55
59110;BME280;44895;47.438;18.978;2023-04-04T01:27:34;100268.25;;;1.54;79.87
59110;BME280;44895;47.438;18.978;2023-04-04T01:30:45;100273.91;;;1.34;86.94
59110;BME280;44895;47.438;18.978;2023-04-04T01:33:51;100268.31;;;1.35;86.87
59110;BME280;44895;47.438;18.978;2023-04-04T01:37:43;100257.84;;;1.45;85.71
59110;BME280;44895;47.438;18.978;2023-04-04T01:40:20;100250.44;;;1.59;75.89
59110;BME280;44895;47.438;18.978;2023-04-04T01:43:31;100237.56;;;1.80;73.35
59110;BME280;44895;47.438;18.978;2023-04-04T01:46:36;100233.97;;;1.98;71.33
59110;BME280;44895;47.438;18.978;2023-04-04T01:49:41;100221.50;;;1.92;69.05
59110;BME280;44895;47.438;18.978;2023-04-04T01:52:45;100217.66;;;2.00;66.64
59110;BME280;44895;47.438;18.978;2023-04-04T01:55:49;100222.56;;;2.03;65.50
59110;BME280;44895;47.438;18.978;2023-04-04T01:58:54;100216.13;;;2.16;65.86
59110;BME280;44895;47.438;18.978;2023-04-04T02:01:57;100209.47;;;2.30;66.18
59110;BME280;44895;47.438;18.978;2023-04-04T02:05:02;100213.91;;;2.24;65.23
59110;BME280;44895;47.438;18.978;2023-04-04T02:08:06;100207.06;;;2.17;65.46
59110;BME280;44895;47.438;18.978;2023-04-04T02:11:18;100205.50;;;2.33;64.79
59110;BME280;44895;47.438;18.978;2023-04-04T02:14:25;100198.50;;;2.32;66.80
59110;BME280;44895;47.438;18.978;2023-04-04T02:17:29;100195.50;;;2.16;64.49
59110;BME280;44895;47.438;18.978;2023-04-04T02:20:33;100195.72;;;2.26;65.42
59110;BME280;44895;47.438;18.978;2023-04-04T02:23:37;100189.69;;;2.19;65.06
59110;BME280;44895;47.438;18.978;2023-04-04T02:26:41;100182.91;;;2.28;66.53
59110;BME280;44895;47.438;18.978;2023-04-04T02:29:44;100178.78;;;2.50;65.12
59110;BME280;44895;47.438;18.978;2023-04-04T02:32:48;100177.75;;;2.39;65.56
59110;BME280;44895;47.438;18.978;2023-04-04T02:35:58;100176.94;;;2.38;64.81
59110;BME280;44895;47.438;18.978;2023-04-04T02:39:01;100176.47;;;2.41;63.29
59110;BME280;44895;47.438;18.978;2023-04-04T02:42:07;100178.00;;;2.37;65.14
59110;BME280;44895;47.438;18.978;2023-04-04T02:45:10;100184.19;;;2.26;65.17
59110;BME280;44895;47.438;18.978;2023-04-04T02:48:17;100185.59;;;2.28;63.74
59110;BME280;44895;47.438;18.978;2023-04-04T02:51:25;100188.63;;;2.32;64.77
59110;BME280;44895;47.438;18.978;2023-04-04T02:54:29;100192.31;;;2.43;64.87
59110;BME280;44895;47.438;18.978;2023-04-04T02:57:32;100189.91;;;2.30;65.52
59110;BME280;44895;47.438;18.978;2023-04-04T03:00:36;100188.00;;;2.42;66.39
59110;BME280;44895;47.438;18.978;2023-04-04T03:03:39;100198.59;;;2.49;63.91
59110;BME280;44895;47.438;18.978;2023-04-04T03:06:43;100199.56;;;2.31;64.32
59110;BME280;44895;47.438;18.978;2023-04-04T03:09:47;100200.56;;;2.53;64.53
59110;BME280;44895;47.438;18.978;2023-04-04T03:12:51;100205.25;;;2.46;64.84
59110;BME280;44895;47.438;18.978;2023-04-04T03:15:59;100218.47;;;2.65;63.00
59110;BME280;44895;47.438;18.978;2023-04-04T03:19:06;100207.56;;;2.54;63.46
59110;BME280;44895;47.438;18.978;2023-04-04T03:22:10;100215.13;;;2.57;63.19
59110;BME280;44895;47.438;18.978;2023-04-04T03:25:14;100209.28;;;2.60;63.29
59110;BME280;44895;47.438;18.978;2023-04-04T03:28:18;100212.47;;;2.57;63.34
59110;BME280;44895;47.438;18.978;2023-04-04T03:31:21;100212.34;;;2.52;63.79
59110;BME280;44895;47.438;18.978;2023-04-04T03:34:25;100208.59;;;2.53;64.55
59110;BME280;44895;47.438;18.978;2023-04-04T03:37:29;100211.25;;;2.65;63.85
59110;BME280;44895;47.438;18.978;2023-04-04T03:40:32;100211.97;;;2.60;63.06
59110;BME280;44895;47.438;18.978;2023-04-04T03:43:36;100215.97;;;2.46;64.32
59110;BME280;44895;47.438;18.978;2023-04-04T03:46:39;100222.00;;;2.53;64.99
59110;BME280;44895;47.438;18.978;2023-04-04T03:49:45;100223.69;;;2.42;66.12
59110;BME280;44895;47.438;18.978;2023-04-04T03:52:50;100221.38;;;2.22;67.28
59110;BME280;44895;47.438;18.978;2023-04-04T03:55:55;100221.13;;;2.36;67.06
59110;BME280;44895;47.438;18.978;2023-04-04T03:58:59;100225.56;;;2.18;67.30
59110;BME280;44895;47.438;18.978;2023-04-04T04:02:03;100213.22;;;2.17;68.58
59110;BME280;44895;47.438;18.978;2023-04-04T04:05:07;100216.59;;;2.12;69.34
59110;BME280;44895;47.438;18.978;2023-04-04T04:08:11;100214.75;;;2.13;70.45
59110;BME280;44895;47.438;18.978;2023-04-04T04:11:15;100203.28;;;2.18;70.66
59110;BME280;44895;47.438;18.978;2023-04-04T04:14:18;100205.88;;;2.12;70.15
59110;BME280;44895;47.438;18.978;2023-04-04T04:17:23;100204.00;;;2.25;70.01
59110;BME280;44895;47.438;18.978;2023-04-04T04:20:27;100194.06;;;2.37;67.82
59110;BME280;44895;47.438;18.978;2023-04-04T04:23:30;100206.69;;;2.25;70.48
59110;BME280;44895;47.438;18.978;2023-04-04T04:26:34;100197.00;;;2.36;68.26
59110;BME280;44895;47.438;18.978;2023-04-04T04:29:39;100203.50;;;2.28;68.22
59110;BME280;44895;47.438;18.978;2023-04-04T04:32:43;100190.22;;;2.45;66.92
59110;BME280;44895;47.438;18.978;2023-04-04T04:35:48;100191.75;;;2.41;67.20
59110;BME280;44895;47.438;18.978;2023-04-04T04:38:51;100183.31;;;2.49;67.24
59110;BME280;44895;47.438;18.978;2023-04-04T04:41:55;100197.13;;;2.70;66.27
59110;BME280;44895;47.438;18.978;2023-04-04T04:45:00;100199.81;;;2.70;66.91
59110;BME280;44895;47.438;18.978;2023-04-04T04:48:06;100201.84;;;2.51;69.03
59110;BME280;44895;47.438;18.978;2023-04-04T04:51:16;100204.66;;;2.44;68.68
59110;BME280;44895;47.438;18.978;2023-04-04T04:54:25;100199.59;;;2.59;67.98
59110;BME280;44895;47.438;18.978;2023-04-04T04:57:31;100202.63;;;2.63;67.83
59110;BME280;44895;47.438;18.978;2023-04-04T05:00:40;100186.81;;;2.78;66.91
59110;BME280;44895;47.438;18.978;2023-04-04T05:03:44;100189.59;;;2.84;66.40
59110;BME280;44895;47.438;18.978;2023-04-04T05:06:52;100192.16;;;2.90;67.04
59110;BME280;44895;47.438;18.978;2023-04-04T05:09:56;100187.22;;;2.70;65.59
59110;BME280;44895;47.438;18.978;2023-04-04T05:12:59;100186.03;;;2.78;66.21
59110;BME280;44895;47.438;18.978;2023-04-04T05:16:08;100184.72;;;2.81;65.72
59110;BME280;44895;47.438;18.978;2023-04-04T05:19:13;100191.59;;;2.88;64.98
59110;BME280;44895;47.438;18.978;2023-04-04T05:22:22;100194.53;;;3.04;64.03
59110;BME280;44895;47.438;18.978;2023-04-04T05:25:28;100188.81;;;2.83;63.68
59110;BME280;44895;47.438;18.978;2023-04-04T05:28:31;100196.06;;;3.29;62.68
59110;BME280;44895;47.438;18.978;2023-04-04T05:31:39;100198.75;;;3.29;62.89
59110;BME280;44895;47.438;18.978;2023-04-04T05:34:49;100191.53;;;3.46;62.34
59110;BME280;44895;47.438;18.978;2023-04-04T05:37:56;100203.22;;;3.57;61.59
59110;BME280;44895;47.438;18.978;2023-04-04T05:41:00;100199.50;;;3.75;61.08
59110;BME280;44895;47.438;18.978;2023-04-04T05:44:03;100196.97;;;3.85;60.19
59110;BME280;44895;47.438;18.978;2023-04-04T05:47:08;100208.53;;;3.86;59.95
59110;BME280;44895;47.438;18.978;2023-04-04T05:50:15;100204.53;;;4.05;59.52
59110;BME280;44895;47.438;18.978;2023-04-04T05:53:18;100207.28;;;4.33;58.86
59110;BME280;44895;47.438;18.978;2023-04-04T05:56:25;100204.16;;;4.19;59.16
59110;BME280;44895;47.438;18.978;2023-04-04T05:59:31;100204.34;;;4.34;58.88
59110;BME280;44895;47.438;18.978;2023-04-04T06:02:38;100206.69;;;4.48;59.79
59110;BME280;44895;47.438;18.978;2023-04-04T06:05:42;100210.88;;;4.38;60.08
59110;BME280;44895;47.438;18.978;2023-04-04T06:08:49;100203.53;;;4.56;60.57
59110;BME280;44895;47.438;18.978;2023-04-04T06:11:53;100206.50;;;4.15;60.00
59110;BME280;44895;47.438;18.978;2023-04-04T06:14:56;100201.09;;;4.54;59.53
59110;BME280;44895;47.438;18.978;2023-04-04T06:18:00;100205.59;;;4.71;57.05
59110;BME280;44895;47.438;18.978;2023-04-04T06:21:05;100207.56;;;4.76;55.85
59110;BME280;44895;47.438;18.978;2023-04-04T06:24:10;100217.28;;;5.04;55.33
59110;BME280;44895;47.438;18.978;2023-04-04T06:27:15;100205.75;;;5.09;54.25
59110;BME280;44895;47.438;18.978;2023-04-04T06:30:20;100192.72;;;5.28;52.60
59110;BME280;44895;47.438;18.978;2023-04-04T06:33:26;100183.13;;;5.75;53.06
59110;BME280;44895;47.438;18.978;2023-04-04T06:36:31;100164.09;;;5.86;52.02
59110;BME280;44895;47.438;18.978;2023-04-04T06:39:38;100165.59;;;6.83;49.67
59110;BME280;44895;47.438;18.978;2023-04-04T06:42:47;100155.72;;;8.53;45.86
59110;BME280;44895;47.438;18.978;2023-04-04T06:45:51;100151.47;;;8.86;45.14
59110;BME280;44895;47.438;18.978;2023-04-04T06:48:56;100148.94;;;10.66;43.74
59110;BME280;44895;47.438;18.978;2023-04-04T06:52:01;100152.69;;;9.73;43.63
59110;BME280;44895;47.438;18.978;2023-04-04T06:55:05;100158.16;;;8.99;44.36
59110;BME280;44895;47.438;18.978;2023-04-04T06:58:09;100162.75;;;8.48;44.88
59110;BME280;44895;47.438;18.978;2023-04-04T07:01:12;100153.25;;;9.70;45.18
59110;BME280;44895;47.438;18.978;2023-04-04T07:04:19;100148.28;;;10.93;42.68
59110;BME280;44895;47.438;18.978;2023-04-04T07:07:22;100166.38;;;8.13;44.00
59110;BME280;44895;47.438;18.978;2023-04-04T07:10:27;100169.16;;;8.73;44.58
59110;BME280;44895;47.438;18.978;2023-04-04T07:13:30;100160.91;;;9.34;44.39
59110;BME280;44895;47.438;18.978;2023-04-04T07:16:34;100176.59;;;8.37;45.29
59110;BME280;44895;47.438;18.978;2023-04-04T07:19:38;100180.22;;;8.01;45.60
59110;BME280;44895;47.438;18.978;2023-04-04T07:22:42;100179.19;;;7.25;46.77
59110;BME280;44895;47.438;18.978;2023-04-04T07:25:46;100171.34;;;7.64;46.39
59110;BME280;44895;47.438;18.978;2023-04-04T07:28:50;100177.28;;;7.51;46.85
59110;BME280;44895;47.438;18.978;2023-04-04T07:31:53;100164.28;;;8.75;47.63
59110;BME280;44895;47.438;18.978;2023-04-04T07:34:57;100162.75;;;8.59;47.19
59110;BME280;44895;47.438;18.978;2023-04-04T07:38:00;100166.22;;;11.80;42.89
59110;BME280;44895;47.438;18.978;2023-04-04T07:41:04;100165.84;;;13.75;39.94
59110;BME280;44895;47.438;18.978;2023-04-04T07:44:08;100163.88;;;12.06;39.96
59110;BME280;44895;47.438;18.978;2023-04-04T07:47:12;100171.59;;;11.00;41.75
59110;BME280;44895;47.438;18.978;2023-04-04T07:50:16;100174.34;;;10.56;40.65
59110;BME280;44895;47.438;18.978;2023-04-04T07:53:19;100179.06;;;11.08;40.14
59110;BME280;44895;47.438;18.978;2023-04-04T07:56:22;100195.16;;;9.59;40.90
59110;BME280;44895;47.438;18.978;2023-04-04T07:59:26;100198.78;;;8.99;41.56
59110;BME280;44895;47.438;18.978;2023-04-04T08:02:29;100189.44;;;9.21;42.58
59110;BME280;44895;47.438;18.978;2023-04-04T08:05:33;100190.59;;;9.09;42.52
59110;BME280;44895;47.438;18.978;2023-04-04T08:08:37;100180.38;;;8.36;42.32
59110;BME280;44895;47.438;18.978;2023-04-04T08:11:41;100177.06;;;8.59;43.08
59110;BME280;44895;47.438;18.978;2023-04-04T08:14:44;100191.09;;;8.72;42.23
59110;BME280;44895;47.438;18.978;2023-04-04T08:17:47;100196.88;;;9.05;42.33
59110;BME280;44895;47.438;18.978;2023-04-04T08:20:52;100188.91;;;9.24;42.22
59110;BME280;44895;47.438;18.978;2023-04-04T08:23:55;100195.50;;;9.76;41.67
59110;BME280;44895;47.438;18.978;2023-04-04T08:26:59;100192.09;;;9.95;41.71
59110;BME280;44895;47.438;18.978;2023-04-04T08:30:02;100192.06;;;9.36;42.31
59110;BME280;44895;47.438;18.978;2023-04-04T08:33:06;100189.47;;;9.55;42.56
59110;BME280;44895;47.438;18.978;2023-04-04T08:36:09;100192.94;;;8.81;43.13
59110;BME280;44895;47.438;18.978;2023-04-04T08:39:13;100193.22;;;9.89;43.35
59110;BME280;44895;47.438;18.978;2023-04-04T08:42:17;100178.59;;;10.82;41.29
59110;BME280;44895;47.438;18.978;2023-04-04T08:45:22;100174.81;;;10.39;41.31
59110;BME280;44895;47.438;18.978;2023-04-04T08:48:26;100166.16;;;10.32;41.90
59110;BME280;44895;47.438;18.978;2023-04-04T08:51:32;100172.72;;;9.48;42.20
59110;BME280;44895;47.438;18.978;2023-04-04T08:54:36;100163.88;;;9.32;41.65
59110;BME280;44895;47.438;18.978;2023-04-04T08:57:40;100157.47;;;9.87;41.94
59110;BME280;44895;47.438;18.978;2023-04-04T09:00:44;100153.13;;;10.77;40.79
59110;BME280;44895;47.438;18.978;2023-04-04T09:03:48;100149.22;;;10.21;41.07
59110;BME280;44895;47.438;18.978;2023-04-04T09:06:52;100158.22;;;9.63;41.85
59110;BME280;44895;47.438;18.978;2023-04-04T09:09:56;100164.66;;;9.38;42.45
59110;BME280;44895;47.438;18.978;2023-04-04T09:13:00;100152.97;;;10.01;41.13
59110;BME280;44895;47.438;18.978;2023-04-04T09:16:05;100154.59;;;9.73;41.07
59110;BME280;44895;47.438;18.978;2023-04-04T09:19:09;100160.09;;;9.33;40.89
59110;BME280;44895;47.438;18.978;2023-04-04T09:22:12;100163.28;;;9.40;41.53
59110;BME280;44895;47.438;18.978;2023-04-04T09:25:18;100160.50;;;9.16;41.72
59110;BME280;44895;47.438;18.978;2023-04-04T09:28:21;100161.16;;;9.32;41.86
59110;BME280;44895;47.438;18.978;2023-04-04T09:31:25;100155.34;;;9.49;41.22
59110;BME280;44895;47.438;18.978;2023-04-04T09:34:28;100159.03;;;9.29;41.90
59110;BME280;44895;47.438;18.978;2023-04-04T09:37:32;100149.66;;;9.51;41.09
59110;BME280;44895;47.438;18.978;2023-04-04T09:40:36;100152.53;;;9.30;41.03
59110;BME280;44895;47.438;18.978;2023-04-04T09:43:40;100154.13;;;8.96;42.60
59110;BME280;44895;47.438;18.978;2023-04-04T09:46:47;100139.50;;;9.32;41.84
59110;BME280;44895;47.438;18.978;2023-04-04T09:49:58;100139.38;;;9.13;43.44
59110;BME280;44895;47.438;18.978;2023-04-04T09:53:01;100135.63;;;9.73;42.36
59110;BME280;44895;47.438;18.978;2023-04-04T09:56:05;100138.09;;;9.69;42.03
59110;BME280;44895;47.438;18.978;2023-04-04T09:59:08;100148.41;;;9.67;43.06
59110;BME280;44895;47.438;18.978;2023-04-04T10:02:12;100146.34;;;9.59;42.24
59110;BME280;44895;47.438;18.978;2023-04-04T10:05:16;100148.16;;;9.34;41.43
59110;BME280;44895;47.438;18.978;2023-04-04T10:08:20;100149.00;;;9.64;42.17
59110;BME280;44895;47.438;18.978;2023-04-04T10:11:31;100154.56;;;9.43;42.12
59110;BME280;44895;47.438;18.978;2023-04-04T10:14:36;100147.03;;;9.40;41.38
59110;BME280;44895;47.438;18.978;2023-04-04T10:17:39;100141.94;;;9.34;41.74
59110;BME280;44895;47.438;18.978;2023-04-04T10:20:43;100134.19;;;9.81;42.09
59110;BME280;44895;47.438;18.978;2023-04-04T10:23:48;100136.72;;;9.37;40.70
59110;BME280;44895;47.438;18.978;2023-04-04T10:26:52;100129.84;;;9.79;41.74
59110;BME280;44895;47.438;18.978;2023-04-04T10:29:58;100125.66;;;9.92;41.59
59110;BME280;44895;47.438;18.978;2023-04-04T10:33:13;100125.38;;;9.65;41.57
59110;BME280;44895;47.438;18.978;2023-04-04T10:36:28;100119.25;;;10.07;40.98
59110;BME280;44895;47.438;18.978;2023-04-04T10:39:31;100120.13;;;9.49;40.73
59110;BME280;44895;47.438;18.978;2023-04-04T10:42:39;100117.53;;;9.63;39.48
59110;BME280;44895;47.438;18.978;2023-04-04T10:45:43;100120.16;;;9.73;41.71
59110;BME280;44895;47.438;18.978;2023-04-04T10:48:47;100118.84;;;9.95;41.44
59110;BME280;44895;47.438;18.978;2023-04-04T10:51:51;100130.84;;;9.89;40.92
59110;BME280;44895;47.438;18.978;2023-04-04T10:54:57;100124.78;;;9.73;41.03
59110;BME280;44895;47.438;18.978;2023-04-04T10:58:02;100118.84;;;9.95;41.09
59110;BME280;44895;47.438;18.978;2023-04-04T11:01:06;100111.84;;;10.13;40.71
59110;BME280;44895;47.438;18.978;2023-04-04T11:07:20;100106.56;;;10.22;40.02
59110;BME280;44895;47.438;18.978;2023-04-04T11:10:30;100107.50;;;9.63;39.06
59110;BME280;44895;47.438;18.978;2023-04-04T11:13:35;100103.69;;;9.65;39.26
59110;BME280;44895;47.438;18.978;2023-04-04T11:16:45;100095.38;;;10.53;40.14
59110;BME280;44895;47.438;18.978;2023-04-04T11:19:58;100105.91;;;10.11;39.81
59110;BME280;44895;47.438;18.978;2023-04-04T11:23:07;100100.94;;;10.42;40.84
59110;BME280;44895;47.438;18.978;2023-04-04T11:26:12;100090.72;;;10.72;39.86
59110;BME280;44895;47.438;18.978;2023-04-04T11:29:19;100092.19;;;10.46;40.97
59110;BME280;44895;47.438;18.978;2023-04-04T11:32:28;100085.28;;;10.91;40.85
59110;BME280;44895;47.438;18.978;2023-04-04T11:35:31;100085.63;;;10.27;38.80
59110;BME280;44895;47.438;18.978;2023-04-04T11:38:35;100074.69;;;9.89;40.05
59110;BME280;44895;47.438;18.978;2023-04-04T11:41:43;100072.09;;;10.47;39.12
59110;BME280;44895;47.438;18.978;2023-04-04T11:47:50;100068.91;;;10.77;41.34
59110;BME280;44895;47.438;18.978;2023-04-04T11:50:55;100057.56;;;11.08;40.00
59110;BME280;44895;47.438;18.978;2023-04-04T11:53:59;100059.63;;;10.46;38.58
59110;BME280;44895;47.438;18.978;2023-04-04T11:57:09;100061.06;;;10.76;39.05
59110;BME280;44895;47.438;18.978;2023-04-04T12:00:32;100056.84;;;11.50;41.16
59110;BME280;44895;47.438;18.978;2023-04-04T12:03:39;100050.94;;;11.15;38.56
59110;BME280;44895;47.438;18.978;2023-04-04T12:06:44;100054.75;;;10.81;39.86
59110;BME280;44895;47.438;18.978;2023-04-04T12:09:48;100047.88;;;11.02;39.97
59110;BME280;44895;47.438;18.978;2023-04-04T12:12:54;100051.28;;;10.94;39.00
59110;BME280;44895;47.438;18.978;2023-04-04T12:15:57;100034.59;;;11.48;40.30
59110;BME280;44895;47.438;18.978;2023-04-04T12:19:01;100034.31;;;11.02;38.25
59110;BME280;44895;47.438;18.978;2023-04-04T12:22:05;100028.22;;;11.38;39.58
59110;BME280;44895;47.438;18.978;2023-04-04T12:25:10;100027.81;;;11.17;39.77
59110;BME280;44895;47.438;18.978;2023-04-04T12:28:16;100035.50;;;10.96;39.29
59110;BME280;44895;47.438;18.978;2023-04-04T12:31:19;100016.59;;;11.05;40.45
59110;BME280;44895;47.438;18.978;2023-04-04T12:34:24;100018.13;;;10.78;41.13
59110;BME280;44895;47.438;18.978;2023-04-04T12:37:30;100016.94;;;11.17;41.17
59110;BME280;44895;47.438;18.978;2023-04-04T12:40:36;100024.84;;;11.00;40.15
59110;BME280;44895;47.438;18.978;2023-04-04T12:43:40;100009.28;;;11.47;38.82
59110;BME280;44895;47.438;18.978;2023-04-04T12:46:43;100016.06;;;11.78;40.39
59110;BME280;44895;47.438;18.978;2023-04-04T12:49:47;100005.88;;;11.69;39.92
59110;BME280;44895;47.438;18.978;2023-04-04T12:52:51;100009.25;;;11.19;38.48
59110;BME280;44895;47.438;18.978;2023-04-04T12:55:59;100008.28;;;10.82;38.59
59110;BME280;44895;47.438;18.978;2023-04-04T12:59:03;100000.91;;;10.83;40.47
59110;BME280;44895;47.438;18.978;2023-04-04T13:02:07;100004.94;;;10.85;40.80
59110;BME280;44895;47.438;18.978;2023-04-04T13:05:13;99991.09;;;10.87;40.77
59110;BME280;44895;47.438;18.978;2023-04-04T13:08:16;99997.06;;;11.17;39.99
59110;BME280;44895;47.438;18.978;2023-04-04T13:11:21;99994.38;;;11.31;40.85
59110;BME280;44895;47.438;18.978;2023-04-04T13:14:26;99992.72;;;11.02;40.40
59110;BME280;44895;47.438;18.978;2023-04-04T13:17:43;99995.78;;;10.81;38.95
59110;BME280;44895;47.438;18.978;2023-04-04T13:20:47;100001.13;;;10.86;38.42
59110;BME280;44895;47.438;18.978;2023-04-04T13:23:50;99994.44;;;10.98;39.05
59110;BME280;44895;47.438;18.978;2023-04-04T13:26:53;99994.03;;;10.71;37.92
59110;BME280;44895;47.438;18.978;2023-04-04T13:29:57;99993.75;;;10.16;38.85
59110;BME280;44895;47.438;18.978;2023-04-04T13:33:01;99984.56;;;11.02;39.16
59110;BME280;44895;47.438;18.978;2023-04-04T13:36:05;99988.91;;;11.03;39.29
59110;BME280;44895;47.438;18.978;2023-04-04T13:39:08;99983.34;;;10.94;40.77
59110;BME280;44895;47.438;18.978;2023-04-04T13:42:12;99988.06;;;10.88;40.29
59110;BME280;44895;47.438;18.978;2023-04-04T13:45:16;99985.50;;;11.11;40.60
59110;BME280;44895;47.438;18.978;2023-04-04T13:48:19;99984.34;;;10.98;40.30
59110;BME280;44895;47.438;18.978;2023-04-04T13:51:23;99989.28;;;10.96;39.58
59110;BME280;44895;47.438;18.978;2023-04-04T13:54:26;99983.47;;;11.17;40.34
59110;BME280;44895;47.438;18.978;2023-04-04T13:57:30;99981.91;;;10.83;37.75
59110;BME280;44895;47.438;18.978;2023-04-04T14:00:34;99982.25;;;10.62;39.41
59110;BME280;44895;47.438;18.978;2023-04-04T14:03:37;99981.88;;;10.50;38.69
59110;BME280;44895;47.438;18.978;2023-04-04T14:06:41;99981.94;;;10.64;40.16
59110;BME280;44895;47.438;18.978;2023-04-04T14:09:44;99976.25;;;10.46;40.02
59110;BME280;44895;47.438;18.978;2023-04-04T14:12:47;99986.75;;;10.86;38.75
59110;BME280;44895;47.438;18.978;2023-04-04T14:15:51;99980.19;;;10.73;39.01
59110;BME280;44895;47.438;18.978;2023-04-04T14:18:54;99982.69;;;10.31;39.58
59110;BME280;44895;47.438;18.978;2023-04-04T14:21:58;99985.81;;;10.00;38.22
59110;BME280;44895;47.438;18.978;2023-04-04T14:25:02;99994.66;;;10.30;39.13
59110;BME280;44895;47.438;18.978;2023-04-04T14:28:06;99984.38;;;10.27;37.85
59110;BME280;44895;47.438;18.978;2023-04-04T14:31:10;99980.88;;;10.79;40.05
59110;BME280;44895;47.438;18.978;2023-04-04T14:34:14;99981.09;;;10.49;40.11
59110;BME280;44895;47.438;18.978;2023-04-04T14:37:17;99985.59;;;10.16;38.52
59110;BME280;44895;47.438;18.978;2023-04-04T14:40:21;99986.56;;;10.06;38.96
59110;BME280;44895;47.438;18.978;2023-04-04T14:43:25;99991.00;;;10.40;39.78
59110;BME280;44895;47.438;18.978;2023-04-04T14:46:28;99993.94;;;10.43;39.51
59110;BME280;44895;47.438;18.978;2023-04-04T14:49:31;99999.56;;;10.28;39.65
59110;BME280;44895;47.438;18.978;2023-04-04T14:52:35;99985.78;;;10.43;39.85
59110;BME280;44895;47.438;18.978;2023-04-04T14:55:39;99991.59;;;10.37;40.47
59110;BME280;44895;47.438;18.978;2023-04-04T14:58:42;99993.59;;;10.26;40.19
59110;BME280;44895;47.438;18.978;2023-04-04T15:01:46;99995.91;;;10.19;40.33
59110;BME280;44895;47.438;18.978;2023-04-04T15:04:49;99996.03;;;10.27;40.04
59110;BME280;44895;47.438;18.978;2023-04-04T15:07:53;99997.13;;;10.26;39.93
59110;BME280;44895;47.438;18.978;2023-04-04T15:10:59;99995.72;;;9.91;40.34
59110;BME280;44895;47.438;18.978;2023-04-04T15:14:04;100002.41;;;10.18;40.72
59110;BME280;44895;47.438;18.978;2023-04-04T15:17:07;99998.69;;;10.14;41.78
59110;BME280;44895;47.438;18.978;2023-04-04T15:20:11;99999.53;;;9.90;40.28
59110;BME280;44895;47.438;18.978;2023-04-04T15:23:15;100006.81;;;9.70;40.29
59110;BME280;44895;47.438;18.978;2023-04-04T15:26:19;100007.53;;;10.00;40.39
59110;BME280;44895;47.438;18.978;2023-04-04T15:29:24;100002.06;;;9.81;41.48
59110;BME280;44895;47.438;18.978;2023-04-04T15:32:27;100001.44;;;9.89;40.47
59110;BME280;44895;47.438;18.978;2023-04-04T15:35:31;100014.44;;;9.68;41.16
59110;BME280;44895;47.438;18.978;2023-04-04T15:38:34;100011.59;;;9.78;41.36
59110;BME280;44895;47.438;18.978;2023-04-04T15:41:38;100007.31;;;9.96;41.66
59110;BME280;44895;47.438;18.978;2023-04-04T15:44:42;100019.22;;;9.76;40.39
59110;BME280;44895;47.438;18.978;2023-04-04T15:47:46;100017.31;;;9.77;41.22
59110;BME280;44895;47.438;18.978;2023-04-04T15:50:49;100015.19;;;9.50;42.13
59110;BME280;44895;47.438;18.978;2023-04-04T15:53:53;100021.63;;;9.00;41.95
59110;BME280;44895;47.438;18.978;2023-04-04T15:56:58;100021.22;;;9.17;42.55
59110;BME280;44895;47.438;18.978;2023-04-04T16:00:01;100022.75;;;9.28;42.32
59110;BME280;44895;47.438;18.978;2023-04-04T16:03:10;100025.16;;;9.30;41.90
59110;BME280;44895;47.438;18.978;2023-04-04T16:06:14;100033.25;;;9.06;42.18
59110;BME280;44895;47.438;18.978;2023-04-04T16:09:18;100031.13;;;9.27;42.54
59110;BME280;44895;47.438;18.978;2023-04-04T16:12:23;100035.75;;;9.26;42.65